createdAt,value
2023-04-26T00:04:30.204Z,9.79
2023-04-26T00:14:34.268Z,9.85
2023-04-26T00:24:40.158Z,9.81
2023-04-26T00:34:43.742Z,9.75
2023-04-26T00:44:50.570Z,9.70
2023-04-26T00:54:55.034Z,9.50
2023-04-26T01:05:02.591Z,9.48
2023-04-26T01:15:07.632Z,9.36
2023-04-26T01:25:13.735Z,9.22
2023-04-26T01:35:19.738Z,9.11
2023-04-26T01:45:25.376Z,9.10
2023-04-26T01:55:51.313Z,9.12
2023-04-26T02:05:54.879Z,9.21
2023-04-26T02:16:02.109Z,9.22
2023-04-26T02:26:05.800Z,9.17
2023-04-26T02:36:09.514Z,9.07
2023-04-26T02:46:14.156Z,9.02
2023-04-26T02:56:20.149Z,8.91
2023-04-26T03:06:23.916Z,8.72
2023-04-26T03:16:30.603Z,8.63
2023-04-26T03:26:36.122Z,8.70
2023-04-26T03:36:40.011Z,8.76
2023-04-26T03:46:48.050Z,8.59
2023-04-26T03:56:53.113Z,8.51
2023-04-26T04:06:57.252Z,8.60
2023-04-26T04:17:05.698Z,8.82
2023-04-26T04:27:09.352Z,8.76
2023-04-26T04:37:18.814Z,9.68
2023-04-26T04:47:24.592Z,14.13
2023-04-26T04:57:28.633Z,16.27
2023-04-26T05:07:33.925Z,19.00
2023-04-26T05:17:38.852Z,16.37
2023-04-26T05:27:54.437Z,14.10
2023-04-26T05:38:26.120Z,12.37
2023-04-26T05:48:30.199Z,11.48
2023-04-26T05:58:34.272Z,11.13
2023-04-26T06:08:41.687Z,10.97
2023-04-26T06:18:46.494Z,11.05
2023-04-26T06:28:50.205Z,11.26
2023-04-26T06:38:55.467Z,11.29
2023-04-26T06:48:59.117Z,11.22
2023-04-26T06:59:10.028Z,11.21
2023-04-26T07:10:19.026Z,11.24
2023-04-26T07:20:24.443Z,11.32
2023-04-26T07:30:28.038Z,11.72
2023-04-26T07:40:52.444Z,12.42
2023-04-26T07:50:57.210Z,12.27
2023-04-26T08:01:02.769Z,12.01
2023-04-26T08:11:10.334Z,11.39
2023-04-26T08:22:14.646Z,11.63
2023-04-26T08:32:18.289Z,11.94
2023-04-26T08:42:28.263Z,11.49
2023-04-26T08:52:33.192Z,11.92
2023-04-26T09:02:40.140Z,11.98
2023-04-26T09:12:44.036Z,12.23
2023-04-26T09:22:49.328Z,12.33
2023-04-26T09:33:02.768Z,12.14
2023-04-26T09:43:13.779Z,12.61
2023-04-26T09:53:33.614Z,12.39
2023-04-26T10:03:38.458Z,12.15
2023-04-26T10:13:44.735Z,12.45
2023-04-26T10:23:50.792Z,13.00
2023-04-26T10:34:25.042Z,13.46
2023-04-26T10:44:59.783Z,12.61
2023-04-26T10:55:06.488Z,12.75
2023-04-26T11:05:32.249Z,13.32
2023-04-26T11:15:36.367Z,13.00
2023-04-26T11:25:42.560Z,12.39
2023-04-26T11:35:53.888Z,12.69
2023-04-26T11:46:02.087Z,12.81
2023-04-26T11:56:16.904Z,12.87
2023-04-26T12:06:22.982Z,12.29
2023-04-26T12:16:27.253Z,11.77
2023-04-26T12:26:45.272Z,10.97
2023-04-26T12:36:50.606Z,11.19
2023-04-26T12:46:54.372Z,12.13
2023-04-26T12:56:58.018Z,12.16
2023-04-26T13:07:01.899Z,11.58
2023-04-26T13:17:09.868Z,12.11
2023-04-26T13:27:13.765Z,11.84
2023-04-26T13:37:20.303Z,10.68
2023-04-26T13:47:28.925Z,10.32
2023-04-26T13:57:32.588Z,9.70
2023-04-26T14:07:57.863Z,10.02
2023-04-26T14:18:01.520Z,10.62
2023-04-26T14:28:08.924Z,10.61
2023-04-26T14:38:12.607Z,10.66
2023-04-26T14:48:19.418Z,10.58
2023-04-26T14:58:26.429Z,10.61
2023-04-26T15:08:30.325Z,10.44
2023-04-26T15:18:39.379Z,10.75
2023-04-26T15:28:43.194Z,10.96
2023-04-26T15:38:50.051Z,11.16
2023-04-26T15:48:53.756Z,10.66
2023-04-26T15:58:59.455Z,9.78
2023-04-26T16:09:23.469Z,10.17
2023-04-26T16:19:29.551Z,10.31
2023-04-26T16:29:35.202Z,10.56
2023-04-26T16:39:38.992Z,10.38
2023-04-26T16:49:46.620Z,10.49
2023-04-26T16:59:51.827Z,10.63
2023-04-26T17:09:56.158Z,10.06
2023-04-26T17:20:04.333Z,9.98
2023-04-26T17:30:08.663Z,9.98
2023-04-26T17:40:12.642Z,9.86
2023-04-26T17:50:18.545Z,9.42
2023-04-26T18:00:24.190Z,9.36
2023-04-26T18:10:27.874Z,9.21
2023-04-26T18:20:37.078Z,8.74
2023-04-26T18:30:41.075Z,8.34
2023-04-26T18:40:48.089Z,8.36
2023-04-26T18:50:55.965Z,8.26
2023-04-26T19:00:59.575Z,7.95
2023-04-26T19:11:03.812Z,7.92
2023-04-26T19:21:15.337Z,7.93
2023-04-26T19:32:01.974Z,7.67
2023-04-26T19:42:11.624Z,7.58
2023-04-26T19:52:17.397Z,7.52
2023-04-26T20:02:22.775Z,7.34
2023-04-26T20:12:30.681Z,7.26
2023-04-26T20:22:36.472Z,7.13
2023-04-26T20:32:40.404Z,6.96
2023-04-26T20:42:44.086Z,6.84
2023-04-26T20:52:47.844Z,6.74
2023-04-26T21:02:53.539Z,6.60
2023-04-26T21:12:57.370Z,6.46
2023-04-26T21:23:06.979Z,6.29
2023-04-26T21:33:10.817Z,6.18
2023-04-26T21:43:19.004Z,6.10
2023-04-26T21:53:23.147Z,6.02
2023-04-26T22:03:30.729Z,5.92
2023-04-26T22:13:35.576Z,5.84
2023-04-26T22:23:39.320Z,5.75
2023-04-26T22:33:43.172Z,5.63
2023-04-26T22:43:53.219Z,5.64
2023-04-26T22:54:00.573Z,5.60
2023-04-26T23:04:05.414Z,5.57
2023-04-26T23:14:11.400Z,5.55
2023-04-26T23:24:15.135Z,5.48
2023-04-26T23:34:20.858Z,5.45
2023-04-26T23:44:26.767Z,5.39
2023-04-26T23:54:33.057Z,5.36
